Time;durP1;ratioP1;P1;durP2;ratioP2;P2;SDS_P1;SDS_P2;PMS_P1;PMS_P2;Temp;Humidity;BMP_temperature;BMP_pressure;BME280_temperature;BME280_humidity;BME280_pressure;Samples;Min_cycle;Max_cycle;Signal;HPM_P1;HPM_P2
2022/10/22 00:02:23;;;;;;;6.50;3.17;;;13.60;99.90;;;;;;5026724;28;20047;-76
2022/10/22 00:04:49;;;;;;;6.15;3.03;;;13.50;99.90;;;;;;5041665;28;20033;-76
2022/10/22 00:07:21;;;;;;;4.68;2.97;;;13.50;99.90;;;;;;5031072;28;20045;-76
2022/10/22 00:09:47;;;;;;;5.00;2.85;;;13.50;99.90;;;;;;5033097;28;20036;-76
2022/10/22 00:12:14;;;;;;;6.78;3.20;;;13.50;99.90;;;;;;5040981;28;20045;-77
2022/10/22 00:14:40;;;;;;;9.20;3.55;;;13.50;99.90;;;;;;5044672;28;20487;-76
2022/10/22 00:17:06;;;;;;;;;;;13.40;99.90;;;;;;5051318;28;20050;-75
2022/10/22 00:19:31;;;;;;;;;;;13.40;99.90;;;;;;5027392;28;20015;-76
2022/10/22 00:21:57;;;;;;;;;;;13.40;99.90;;;;;;5047143;28;19916;-75
2022/10/22 00:24:23;;;;;;;;;;;13.30;99.90;;;;;;5042653;28;19917;-76
2022/10/22 00:26:48;;;;;;;;;;;13.30;99.90;;;;;;5052995;28;19948;-76
2022/10/22 00:29:14;;;;;;;;;;;13.30;99.90;;;;;;5040813;28;19921;-75
2022/10/22 00:31:40;;;;;;;;;;;13.30;99.90;;;;;;5047794;28;19920;-75
2022/10/22 00:34:05;;;;;;;;;;;13.20;99.90;;;;;;5050457;28;20359;-75
2022/10/22 00:36:31;;;;;;;;;;;13.20;99.90;;;;;;5048519;28;19917;-75
2022/10/22 00:38:56;;;;;;;;;;;13.20;99.90;;;;;;5043572;28;19940;-75
2022/10/22 00:41:21;;;;;;;;;;;13.20;99.90;;;;;;5045695;28;19924;-75
2022/10/22 00:43:55;;;;;;;;;;;13.10;99.90;;;;;;5049468;28;19917;-76
2022/10/22 00:46:20;;;;;;;;;;;13.10;99.90;;;;;;5047761;28;20001;-75
2022/10/22 00:48:46;;;;;;;;;;;13.00;99.90;;;;;;5045582;28;19924;-74
2022/10/22 00:51:12;;;;;;;;;;;12.90;99.90;;;;;;5046437;28;19920;-73
2022/10/22 00:53:49;;;;;;;;;;;13.00;99.90;;;;;;5051154;28;19923;-74
2022/10/22 00:56:16;;;;;;;;;;;13.00;99.90;;;;;;5055601;28;19924;-74
2022/10/22 00:58:44;;;;;;;;;;;13.00;99.90;;;;;;5046348;28;19963;-74
2022/10/22 01:01:12;;;;;;;;;;;13.00;99.90;;;;;;5047429;28;19964;-73
2022/10/22 01:03:38;;;;;;;;;;;13.00;99.90;;;;;;5045146;28;19923;-73
2022/10/22 01:06:04;;;;;;;;;;;13.00;99.90;;;;;;5042712;28;19924;-74
2022/10/22 01:08:44;;;;;;;;;;;13.00;99.90;;;;;;5039817;28;19920;-73
2022/10/22 01:11:12;;;;;;;;;;;13.00;99.90;;;;;;5042823;28;19925;-73
2022/10/22 01:13:45;;;;;;;;;;;13.00;99.90;;;;;;5042132;28;19921;-74
2022/10/22 01:16:29;;;;;;;;;;;13.00;99.90;;;;;;5041654;28;19923;-73
2022/10/22 01:18:58;;;;;;;;;;;13.00;99.90;;;;;;5035386;28;19923;-74
2022/10/22 01:21:31;;;;;;;;;;;13.00;99.90;;;;;;5057331;28;20366;-74
2022/10/22 01:23:57;;;;;;;;;;;13.00;99.90;;;;;;5042051;28;19917;-74
2022/10/22 01:26:22;;;;;;;;;;;13.00;99.90;;;;;;5047088;28;19932;-74
2022/10/22 01:28:48;;;;;;;;;;;13.00;99.90;;;;;;5059971;28;19917;-73
2022/10/22 01:31:15;;;;;;;;;;;13.00;99.90;;;;;;5044299;28;19927;-73
2022/10/22 01:33:43;;;;;;;;;;;13.00;99.90;;;;;;5056010;28;19924;-73
2022/10/22 01:36:09;;;;;;;;;;;12.90;99.90;;;;;;5057058;28;19924;-74
2022/10/22 01:38:35;;;;;;;;;;;13.00;99.90;;;;;;5064307;28;20378;-74
2022/10/22 01:41:01;;;;;;;;;;;13.00;99.90;;;;;;5050190;28;19920;-73
2022/10/22 01:43:26;;;;;;;;;;;13.00;99.90;;;;;;5047495;28;19955;-74
2022/10/22 01:45:55;;;;;;;;;;;13.00;99.90;;;;;;5045803;28;20074;-73
2022/10/22 01:48:29;;;;;;;;;;;13.00;99.90;;;;;;5044355;28;19916;-73
2022/10/22 01:50:58;;;;;;;;;;;13.00;99.90;;;;;;5025690;28;19928;-74
2022/10/22 01:53:59;;;;;;;;;;;13.00;99.90;;;;;;5049835;28;19920;-74
2022/10/22 01:56:24;;;;;;;;;;;13.00;99.90;;;;;;4990250;28;19921;-73
2022/10/22 01:58:50;;;;;;;;;;;13.10;99.90;;;;;;5024708;28;20389;-74
2022/10/22 02:01:20;;;;;;;;;;;13.10;99.90;;;;;;5048385;28;19921;-74
2022/10/22 02:03:49;;;;;;;;;;;13.10;99.90;;;;;;5047785;28;20005;-73
2022/10/22 02:06:17;;;;;;;;;;;13.10;99.90;;;;;;5060812;28;19924;-73
2022/10/22 02:08:43;;;;;;;;;;;13.10;99.90;;;;;;5047159;28;19979;-74
2022/10/22 02:11:10;;;;;;;;;;;13.10;99.90;;;;;;5044705;28;19920;-75
2022/10/22 02:13:39;;;;;;;;;;;13.20;99.90;;;;;;5057814;28;19974;-73
2022/10/22 02:16:06;;;;;;;;;;;13.10;99.90;;;;;;5051170;28;19920;-74
2022/10/22 02:18:33;;;;;;;;;;;13.20;99.90;;;;;;5046461;28;20376;-74
2022/10/22 02:20:59;;;;;;;;;;;13.20;99.90;;;;;;5049076;28;19939;-73
2022/10/22 02:23:25;;;;;;;;;;;13.20;99.90;;;;;;5050981;28;20358;-73
2022/10/22 02:25:55;;;;;;;;;;;13.20;99.90;;;;;;5051494;28;19986;-74
2022/10/22 02:28:23;;;;;;;;;;;13.20;99.90;;;;;;5039204;28;19920;-73
2022/10/22 02:30:52;;;;;;;;;;;13.20;99.90;;;;;;5056153;28;20011;-73
2022/10/22 02:33:24;;;;;;;;;;;13.20;99.90;;;;;;5050967;28;20066;-74
2022/10/22 02:35:50;;;;;;;;;;;13.20;99.90;;;;;;5045469;28;19924;-74
2022/10/22 02:38:16;;;;;;;;;;;13.20;99.90;;;;;;5049999;28;20015;-74
2022/10/22 02:40:42;;;;;;;;;;;13.20;99.90;;;;;;5049259;28;20339;-74
2022/10/22 02:43:08;;;;;;;;;;;13.20;99.90;;;;;;5048267;28;20036;-75
2022/10/22 02:45:34;;;;;;;;;;;13.20;99.90;;;;;;5093069;22;20178;-73
2022/10/22 02:47:59;;;;;;;;;;;13.20;99.90;;;;;;5094392;28;19925;-73
2022/10/22 02:50:25;;;;;;;;;;;13.20;99.90;;;;;;5091996;28;19916;-73
2022/10/22 02:52:50;;;;;;;;;;;13.10;99.90;;;;;;5083930;28;20287;-73
2022/10/22 02:55:16;;;;;;;;;;;13.10;99.90;;;;;;5088282;28;20009;-73
2022/10/22 02:57:42;;;;;;;;;;;13.20;99.90;;;;;;5087701;28;20278;-73
2022/10/22 03:00:08;;;;;;;;;;;13.20;99.90;;;;;;5082855;28;20056;-73
2022/10/22 03:02:33;;;;;;;;;;;13.10;99.90;;;;;;5078264;28;19916;-73
2022/10/22 03:04:59;;;;;;;;;;;13.10;99.90;;;;;;5087026;28;19927;-73
2022/10/22 03:07:25;;;;;;;;;;;13.20;99.90;;;;;;5090154;28;19998;-73
2022/10/22 03:09:50;;;;;;;;;;;13.20;99.90;;;;;;5076764;28;19920;-72
2022/10/22 03:12:16;;;;;;;;;;;13.20;99.90;;;;;;5077060;28;19922;-73
2022/10/22 03:14:41;;;;;;;;;;;13.10;99.90;;;;;;5071197;28;20078;-73
2022/10/22 03:17:08;;;;;;;;;;;13.10;99.90;;;;;;5072786;28;20259;-73
2022/10/22 03:19:34;;;;;;;;;;;13.10;99.90;;;;;;5067840;28;19981;-73
2022/10/22 03:22:01;;;;;;;;;;;13.00;99.90;;;;;;5072087;28;19920;-73
2022/10/22 03:24:47;;;;;;;;;;;13.00;99.90;;;;;;5089270;28;19924;-72
2022/10/22 03:27:14;;;;;;;;;;;13.00;99.90;;;;;;5063095;28;19947;-73
2022/10/22 03:29:40;;;;;;;;;;;13.10;99.90;;;;;;5076482;28;20019;-72
2022/10/22 03:32:05;;;;;;;;;;;13.00;99.90;;;;;;5069103;28;20361;-73
2022/10/22 03:34:34;;;;;;;;;;;13.10;99.90;;;;;;5067949;28;20271;-73
2022/10/22 03:37:00;;;;;;;;;;;13.10;99.90;;;;;;5068966;28;19993;-72
2022/10/22 03:39:27;;;;;;;;;;;13.00;99.90;;;;;;5083503;28;19955;-72
2022/10/22 03:41:53;;;;;;;;;;;13.10;99.90;;;;;;5071708;28;19924;-73
2022/10/22 03:44:19;;;;;;;;;;;13.00;99.90;;;;;;5081272;28;20288;-72
2022/10/22 03:46:44;;;;;;;;;;;13.00;99.90;;;;;;5079629;28;19916;-73
2022/10/22 03:49:10;;;;;;;;;;;13.00;99.90;;;;;;5087196;28;19916;-73
2022/10/22 03:51:36;;;;;;;;;;;13.00;99.90;;;;;;5072564;28;20065;-72
2022/10/22 03:54:01;;;;;;;;;;;13.00;99.90;;;;;;5077366;28;19916;-72
2022/10/22 03:56:27;;;;;;;;;;;13.00;99.90;;;;;;5066988;28;19936;-73
2022/10/22 03:58:55;;;;;;;;;;;13.00;99.90;;;;;;5071411;28;20301;-73
2022/10/22 04:01:20;;;;;;;;;;;12.90;99.90;;;;;;5079112;28;19970;-72
2022/10/22 04:03:46;;;;;;;;;;;12.90;99.90;;;;;;5081807;28;20436;-73
2022/10/22 04:06:12;;;;;;;;;;;12.90;99.90;;;;;;5086237;28;20355;-73
2022/10/22 04:08:38;;;;;;;;;;;12.90;99.90;;;;;;5084768;28;19972;-73
2022/10/22 04:11:04;;;;;;;;;;;12.90;99.90;;;;;;5071773;28;19923;-72
2022/10/22 04:13:29;;;;;;;;;;;12.90;99.90;;;;;;5069168;28;19916;-72
2022/10/22 04:15:55;;;;;;;;;;;12.90;99.90;;;;;;5070471;28;20269;-73
2022/10/22 04:18:21;;;;;;;;;;;12.90;99.90;;;;;;5081393;28;20334;-72
2022/10/22 04:20:47;;;;;;;;;;;12.90;99.90;;;;;;5074978;28;19938;-73
2022/10/22 04:23:13;;;;;;;;;;;12.90;99.90;;;;;;5068143;28;20007;-72
2022/10/22 04:25:39;;;;;;;;;;;12.90;99.90;;;;;;5076664;28;20369;-72
2022/10/22 04:28:08;;;;;;;;;;;12.90;99.90;;;;;;5082907;28;19939;-73
2022/10/22 04:30:33;;;;;;;;;;;12.80;99.90;;;;;;5076435;28;19976;-73
2022/10/22 04:32:59;;;;;;;;;;;12.80;99.90;;;;;;5082329;28;19916;-73
2022/10/22 04:35:25;;;;;;;;;;;12.80;99.90;;;;;;5067394;28;19996;-72
2022/10/22 04:37:50;;;;;;;;;;;12.80;99.90;;;;;;5070890;28;19916;-73
2022/10/22 04:40:16;;;;;;;;;;;12.90;99.90;;;;;;5088160;28;19923;-73
2022/10/22 04:42:41;;;;;;;;;;;12.90;99.90;;;;;;5069988;28;19920;-73
2022/10/22 04:45:07;;;;;;;;;;;12.90;99.90;;;;;;5078308;28;20010;-73
2022/10/22 04:47:32;;;;;;;;;;;12.80;99.90;;;;;;5087206;28;19919;-73
2022/10/22 04:49:58;;;;;;;;;;;12.80;99.90;;;;;;5082864;28;19916;-73
2022/10/22 04:52:24;;;;;;;;;;;12.90;99.90;;;;;;5058365;28;19964;-72
2022/10/22 04:54:49;;;;;;;;;;;12.80;99.90;;;;;;5079896;28;19994;-72
2022/10/22 04:57:15;;;;;;;;;;;12.80;99.90;;;;;;5087823;28;19923;-73
2022/10/22 04:59:40;;;;;;;;;;;12.90;99.90;;;;;;5067441;28;19915;-73
2022/10/22 05:02:06;;;;;;;;;;;12.80;99.90;;;;;;5076780;28;19917;-73
2022/10/22 05:04:31;;;;;;;;;;;12.80;99.90;;;;;;5068627;28;19947;-73
2022/10/22 05:06:57;;;;;;;;;;;12.90;99.90;;;;;;5048877;28;19939;-73
2022/10/22 05:09:22;;;;;;;;;;;12.90;99.90;;;;;;5066500;28;19920;-73
2022/10/22 05:11:49;;;;;;;;;;;12.80;99.90;;;;;;5051510;28;19930;-73
2022/10/22 05:14:16;;;;;;;;;;;12.90;99.90;;;;;;5073084;28;20513;-73
2022/10/22 05:16:42;;;;;;;;;;;12.90;99.90;;;;;;5069356;28;19980;-72
2022/10/22 05:19:08;;;;;;;;;;;12.80;99.90;;;;;;5082441;28;20289;-72
2022/10/22 05:21:33;;;;;;;;;;;12.90;99.90;;;;;;5084075;28;19920;-73
2022/10/22 05:23:59;;;;;;;;;;;12.80;99.90;;;;;;5081165;28;19920;-72
2022/10/22 05:26:25;;;;;;;;;;;12.80;99.90;;;;;;5073533;28;20345;-73
2022/10/22 05:28:51;;;;;;;;;;;12.80;99.90;;;;;;5078330;28;20391;-73
2022/10/22 05:31:17;;;;;;;;;;;12.80;99.90;;;;;;5079304;28;19917;-73
2022/10/22 05:33:44;;;;;;;;;;;12.90;99.90;;;;;;5067220;28;19970;-73
2022/10/22 05:36:11;;;;;;;;;;;12.90;99.90;;;;;;5067792;28;20267;-72
2022/10/22 05:38:37;;;;;;;;;;;12.90;99.90;;;;;;5069356;28;19920;-72
2022/10/22 05:41:10;;;;;;;;;;;12.90;99.90;;;;;;5086143;28;19937;-73
2022/10/22 05:43:36;;;;;;;;;;;12.90;99.90;;;;;;5085535;28;19989;-73
2022/10/22 05:46:03;;;;;;;;;;;12.90;99.90;;;;;;5080468;28;19916;-73
2022/10/22 05:48:28;;;;;;;;;;;12.90;99.90;;;;;;5065910;28;20359;-73
2022/10/22 05:50:55;;;;;;;;;;;12.90;99.90;;;;;;5070074;28;20019;-72
2022/10/22 05:53:20;;;;;;;;;;;12.90;99.90;;;;;;5085347;28;20340;-73
2022/10/22 05:55:46;;;;;;;;;;;12.90;99.90;;;;;;5084288;28;19916;-73
2022/10/22 05:58:12;;;;;;;;;;;12.90;99.90;;;;;;5073777;28;20386;-73
2022/10/22 06:00:37;;;;;;;;;;;12.90;99.90;;;;;;5067304;28;20015;-73
2022/10/22 06:03:03;;;;;;;;;;;12.90;99.90;;;;;;5085751;28;20023;-72
2022/10/22 06:05:29;;;;;;;;;;;12.90;99.90;;;;;;5085309;28;19959;-73
2022/10/22 06:07:54;;;;;;;;;;;12.90;99.90;;;;;;5076914;28;20376;-73
2022/10/22 06:10:20;;;;;;;;;;;13.00;99.90;;;;;;5069826;28;19916;-74
2022/10/22 06:12:46;;;;;;;;;;;13.00;99.90;;;;;;5066726;28;20015;-73
2022/10/22 06:15:13;;;;;;;;;;;12.90;99.90;;;;;;5079191;28;20545;-73
2022/10/22 06:17:38;;;;;;;;;;;13.00;99.90;;;;;;5074676;28;19916;-73
2022/10/22 06:20:04;;;;;;;;;;;13.00;99.90;;;;;;5067971;28;19916;-75
2022/10/22 06:22:30;;;;;;;;;;;13.00;99.90;;;;;;5078898;28;19923;-73
2022/10/22 06:24:55;;;;;;;;;;;13.10;99.90;;;;;;5070647;28;19920;-72
2022/10/22 06:27:21;;;;;;;;;;;13.00;99.90;;;;;;5078202;28;19922;-73
2022/10/22 06:29:47;;;;;;;;;;;13.10;99.90;;;;;;5072194;28;19920;-73
2022/10/22 06:32:12;;;;;;;;;;;13.10;99.90;;;;;;5082054;28;19920;-73
2022/10/22 06:34:45;;;;;;;;;;;13.10;99.90;;;;;;5078203;28;19956;-73
2022/10/22 06:37:14;;;;;;;;;;;13.20;99.90;;;;;;5075624;28;20256;-73
2022/10/22 06:39:40;;;;;;;;;;;13.20;99.90;;;;;;5087415;28;20007;-73
2022/10/22 06:42:05;;;;;;;;;;;13.20;99.90;;;;;;5086853;28;19919;-72
2022/10/22 06:44:31;;;;;;;;;;;13.20;99.90;;;;;;5081165;28;19920;-72
2022/10/22 06:46:56;;;;;;;;;;;13.20;99.90;;;;;;5078877;28;19926;-72
2022/10/22 06:49:22;;;;;;;;;;;13.20;99.90;;;;;;5080185;28;19916;-73
2022/10/22 06:51:53;;;;;;;;;;;13.20;99.90;;;;;;5076338;28;20239;-73
2022/10/22 06:54:19;;;;;;;;;;;13.20;99.90;;;;;;5082495;28;19966;-73
2022/10/22 06:56:45;;;;;;;;;;;13.30;99.90;;;;;;5084843;28;20351;-72
2022/10/22 06:59:10;;;;;;;;;;;13.30;99.90;;;;;;5075745;28;20319;-73
2022/10/22 07:01:36;;;;;;;;;;;13.30;99.90;;;;;;5076583;28;19961;-73
2022/10/22 07:04:02;;;;;;;;;;;13.30;99.90;;;;;;5050146;28;19927;-73
2022/10/22 07:06:28;;;;;;;;;;;13.40;99.90;;;;;;5075868;28;19916;-73
2022/10/22 07:08:54;;;;;;;;;;;13.40;99.90;;;;;;5079716;28;19927;-73
2022/10/22 07:11:21;;;;;;;;;;;13.30;99.90;;;;;;5080142;28;19990;-73
2022/10/22 07:13:47;;;;;;;;;;;13.40;99.90;;;;;;5050181;28;19946;-73
2022/10/22 07:16:13;;;;;;;;;;;13.40;99.90;;;;;;5075214;28;20234;-73
2022/10/22 07:18:39;;;;;;;;;;;13.40;99.90;;;;;;5086388;28;19915;-73
2022/10/22 07:21:06;;;;;;;;;;;13.50;99.90;;;;;;5080902;28;20309;-73
2022/10/22 07:23:31;;;;;;;;;;;13.40;99.90;;;;;;5065980;28;19947;-73
2022/10/22 07:25:58;;;;;;;;;;;13.40;99.90;;;;;;5070027;28;19916;-73
2022/10/22 07:28:23;;;;;;;;;;;13.40;99.90;;;;;;5072238;28;20432;-73
2022/10/22 07:30:49;;;;;;;;;;;13.40;99.90;;;;;;5083230;28;19919;-72
2022/10/22 07:33:15;;;;;;;;;;;13.50;99.90;;;;;;5075248;28;20475;-74
2022/10/22 07:35:40;;;;;;;;;;;13.50;99.90;;;;;;5077945;28;20373;-73
2022/10/22 07:38:06;;;;;;;;;;;13.50;99.90;;;;;;5077793;28;19916;-73
2022/10/22 07:40:32;;;;;;;;;;;13.50;99.90;;;;;;5069617;28;19916;-73
2022/10/22 07:42:58;;;;;;;;;;;13.50;99.90;;;;;;5080666;28;19981;-72
2022/10/22 07:45:24;;;;;;;;;;;13.50;99.90;;;;;;5079304;28;20015;-72
2022/10/22 07:47:49;;;;;;;;;;;13.50;99.90;;;;;;5076890;28;20030;-73
2022/10/22 07:50:15;;;;;;;;;;;13.50;99.90;;;;;;5085170;28;19916;-73
2022/10/22 07:52:41;;;;;;;;;;;13.50;99.90;;;;;;5086245;28;19916;-73
2022/10/22 07:55:07;;;;;;;;;;;13.60;99.90;;;;;;5071421;28;19959;-73
2022/10/22 07:57:32;;;;;;;;;;;13.60;99.90;;;;;;5075073;28;20368;-72
2022/10/22 07:59:58;;;;;;;;;;;13.60;99.90;;;;;;5085273;28;19999;-73
2022/10/22 08:02:24;;;;;;;;;;;13.60;99.90;;;;;;5085320;28;19964;-72
2022/10/22 08:04:50;;;;;;;;;;;13.70;99.90;;;;;;5083324;28;20378;-73
2022/10/22 08:07:16;;;;;;;;;;;13.70;99.90;;;;;;5066800;28;19917;-72
2022/10/22 08:09:42;;;;;;;;;;;13.80;99.90;;;;;;5068525;28;19960;-73
2022/10/22 08:12:07;;;;;;;;;;;13.80;99.90;;;;;;5080246;28;19927;-73
2022/10/22 08:14:33;;;;;;;;;;;13.90;99.90;;;;;;5078098;28;20042;-73
2022/10/22 08:16:58;;;;;;;;;;;13.90;99.90;;;;;;5080374;28;20335;-73
2022/10/22 08:19:24;;;;;;;;;;;14.00;99.90;;;;;;5075750;28;19916;-73
2022/10/22 08:21:50;;;;;;;;;;;14.00;99.90;;;;;;5056120;28;20007;-73
2022/10/22 08:24:16;;;;;;;;;;;14.00;99.90;;;;;;5056749;28;19920;-73
2022/10/22 08:26:42;;;;;;;;;;;14.10;99.90;;;;;;5082576;28;19965;-73
2022/10/22 08:29:07;;;;;;;;;;;14.20;99.90;;;;;;5076039;28;20157;-73
2022/10/22 08:31:33;;;;;;;;;;;14.20;99.90;;;;;;5083604;28;19930;-73
2022/10/22 08:33:59;;;;;;;;;;;14.30;99.90;;;;;;5086075;28;19946;-73
2022/10/22 08:36:24;;;;;;;;;;;14.30;99.90;;;;;;5069330;28;20024;-72
2022/10/22 08:38:50;;;;;;;;;;;14.30;99.90;;;;;;5073330;28;19947;-73
2022/10/22 08:41:17;;;;;;;;;;;14.40;99.90;;;;;;5068849;28;20007;-73
2022/10/22 08:46:49;;;;;;;;;;;14.50;99.90;;;;;;5061441;28;19920;-72
2022/10/22 08:49:19;;;;;;;;;;;14.50;99.90;;;;;;5060822;28;19971;-73
2022/10/22 08:51:45;;;;;;;;;;;14.60;99.90;;;;;;5061591;28;19916;-72
2022/10/22 08:54:16;;;;;;;;;;;14.60;99.90;;;;;;5040323;28;20343;-72
2022/10/22 08:56:43;;;;;;;;;;;14.70;99.90;;;;;;5050823;28;19966;-72
2022/10/22 08:59:24;;;;;;;;;;;14.80;99.90;;;;;;5034675;28;20008;-73
2022/10/22 09:01:51;;;;;;;;;;;14.90;99.90;;;;;;5052907;28;19920;-72
2022/10/22 09:04:18;;;;;;;;;;;14.90;99.90;;;;;;5039861;28;20152;-73
2022/10/22 09:06:44;;;;;;;;;;;14.90;99.90;;;;;;5052566;28;19924;-72
2022/10/22 09:09:15;;;;;;;;;;;15.00;99.90;;;;;;5051616;28;19924;-72
2022/10/22 09:11:42;;;;;;;;;;;15.00;99.90;;;;;;5054811;28;19917;-72
2022/10/22 09:14:12;;;;;;;;;;;15.00;99.90;;;;;;5058002;28;20171;-72
2022/10/22 09:16:46;;;;;;;;;;;15.00;99.90;;;;;;5029939;28;19923;-73
2022/10/22 09:19:21;;;;;;;;;;;15.10;99.90;;;;;;5036715;28;20015;-73
2022/10/22 09:21:53;;;;;;;;;;;15.00;99.90;;;;;;5033769;28;19981;-73
2022/10/22 09:24:18;;;;;;;;;;;15.10;99.90;;;;;;5044928;28;19925;-72
2022/10/22 09:26:44;;;;;;;;;;;15.10;99.90;;;;;;5037360;28;19938;-73
2022/10/22 09:29:16;;;;;;;;;;;15.10;99.90;;;;;;5044512;28;19931;-73
2022/10/22 09:31:42;;;;;;;;;;;15.10;99.90;;;;;;5051963;28;19946;-73
2022/10/22 09:34:08;;;;;;;;;;;15.10;99.90;;;;;;5043155;28;19916;-73
2022/10/22 09:36:33;;;;;;;;;;;15.20;99.90;;;;;;5019739;28;19923;-73
2022/10/22 09:38:59;;;;;;;;;;;15.20;99.90;;;;;;5033781;28;19985;-73
2022/10/22 09:41:28;;;;;;;;;;;15.20;99.90;;;;;;5052938;28;19990;-73
2022/10/22 09:43:54;;;;;;;;;;;15.20;99.90;;;;;;5035410;28;20020;-72
2022/10/22 09:46:21;;;;;;;;;;;15.30;99.90;;;;;;5032915;28;20356;-72
2022/10/22 09:48:59;;;;;;;;;;;15.30;99.90;;;;;;5039662;28;19925;-73
2022/10/22 09:51:35;;;;;;;;;;;15.40;99.90;;;;;;5042950;28;19924;-73
2022/10/22 09:54:01;;;;;;;;;;;15.50;99.90;;;;;;5037675;28;19916;-73
2022/10/22 09:56:32;;;;;;;;;;;15.60;99.90;;;;;;5047680;28;19960;-73
2022/10/22 09:58:57;;;;;;;;;;;15.60;99.90;;;;;;5046756;28;19923;-73
2022/10/22 10:01:34;;;;;;;;;;;15.70;99.90;;;;;;5031257;28;20340;-73
2022/10/22 10:04:06;;;;;;;;;;;15.70;99.90;;;;;;5046400;28;19920;-73
2022/10/22 10:06:33;;;;;;;;;;;15.80;99.90;;;;;;5033711;28;19917;-74
2022/10/22 10:09:02;;;;;;;;;;;15.70;99.90;;;;;;5033510;28;20386;-73
2022/10/22 10:11:31;;;;;;;;;;;15.70;99.90;;;;;;5039670;28;19917;-73
2022/10/22 10:14:05;;;;;;;;;;;15.60;99.90;;;;;;5047235;28;20333;-73
2022/10/22 10:16:37;;;;;;;;;;;15.70;99.90;;;;;;5019858;28;19917;-74
2022/10/22 10:19:02;;;;;;;;;;;15.60;99.90;;;;;;5037921;28;20007;-73
2022/10/22 10:21:37;;;;;;;;;;;15.70;99.90;;;;;;5037991;28;20015;-73
2022/10/22 10:24:35;;;;;;;;;;;15.60;99.90;;;;;;5016111;28;19920;-73
2022/10/22 10:27:13;;;;;;;;;;;15.60;99.90;;;;;;4999186;28;19916;-73
2022/10/22 10:30:05;;;;;;;;;;;15.60;99.90;;;;;;5060433;28;20348;-73
2022/10/22 10:32:50;;;;;;;;;;;15.50;99.90;;;;;;5000911;28;19923;-73
2022/10/22 10:35:24;;;;;;;;;;;15.50;99.90;;;;;;5048734;28;19924;-73
2022/10/22 10:37:56;;;;;;;;;;;15.50;99.90;;;;;;5028087;28;20369;-73
2022/10/22 10:40:40;;;;;;;;;;;15.50;99.90;;;;;;5054383;28;20219;-73
2022/10/22 10:43:15;;;;;;;;;;;15.50;99.90;;;;;;5023648;28;19920;-73
2022/10/22 10:45:47;;;;;;;;;;;15.50;99.90;;;;;;5052512;28;20341;-73
2022/10/22 10:48:25;;;;;;;;;;;15.40;99.90;;;;;;5048830;28;19920;-73
2022/10/22 10:50:50;;;;;;;;;;;15.40;99.90;;;;;;5021599;28;19921;-73
2022/10/22 10:53:25;;;;;;;;;;;15.40;99.90;;;;;;5053961;28;20447;-73
2022/10/22 10:56:29;;;;;;;;;;;15.40;99.90;;;;;;5040968;28;20443;-73
2022/10/22 10:59:09;;;;;;;;;;;15.40;99.90;;;;;;4979895;28;19917;-73
2022/10/22 11:01:37;;;;;;;;;;;15.50;99.90;;;;;;4982437;28;19953;-73
2022/10/22 11:04:08;;;;;;;;;;;15.70;99.90;;;;;;5026036;28;20015;-73
2022/10/22 11:06:35;;;;;;;;;;;15.70;99.90;;;;;;5054074;28;19917;-73
2022/10/22 11:09:04;;;;;;;;;;;15.80;99.90;;;;;;5044301;28;19917;-73
2022/10/22 11:11:33;;;;;;;;;;;15.80;99.90;;;;;;5047237;28;19920;-73
2022/10/22 11:14:02;;;;;;;;;;;15.70;99.90;;;;;;5041668;28;20274;-73
2022/10/22 11:16:27;;;;;;;;;;;15.70;99.90;;;;;;5061340;28;19920;-73
2022/10/22 11:19:12;;;;;;;;;;;15.70;99.90;;;;;;5051598;28;19995;-73
2022/10/22 11:22:04;;;;;;;;;;;15.70;99.90;;;;;;5046575;28;20290;-73
2022/10/22 11:24:29;;;;;;;;;;;15.60;99.90;;;;;;5056028;28;19920;-73
2022/10/22 11:27:18;;;;;;;;;;;15.60;99.90;;;;;;5053828;28;19920;-73
2022/10/22 11:29:47;;;;;;;;;;;15.60;99.90;;;;;;5038353;28;19931;-73
2022/10/22 11:32:16;;;;;;;;;;;15.60;99.90;;;;;;5031410;28;20445;-73
2022/10/22 11:34:55;;;;;;;;;;;15.60;99.90;;;;;;5050458;28;19966;-73
2022/10/22 11:37:23;;;;;;;;;;;15.50;99.90;;;;;;5035554;28;20054;-73
2022/10/22 11:40:01;;;;;;;;;;;15.60;99.90;;;;;;5046131;28;20325;-73
2022/10/22 11:42:45;;;;;;;;;;;15.60;99.90;;;;;;5052504;28;19924;-73
2022/10/22 11:45:14;;;;;;;;;;;15.60;99.90;;;;;;5035980;28;20345;-72
2022/10/22 11:47:58;;;;;;;;;;;15.70;99.90;;;;;;5046695;28;19977;-72
2022/10/22 11:50:42;;;;;;;;;;;15.70;99.90;;;;;;5061811;28;20413;-72
2022/10/22 11:53:13;;;;;;;;;;;15.70;99.90;;;;;;5043158;28;19921;-72
2022/10/22 11:55:46;;;;;;;;;;;15.80;99.90;;;;;;5034123;28;19924;-72
2022/10/22 11:58:25;;;;;;;;;;;15.80;99.90;;;;;;5051498;28;19924;-72
2022/10/22 12:00:50;;;;;;;;;;;15.90;99.90;;;;;;5048003;28;19927;-72
2022/10/22 12:03:17;;;;;;;;;;;15.90;99.90;;;;;;5061370;28;20011;-72
2022/10/22 12:05:43;;;;;;;;;;;15.90;99.90;;;;;;5054412;28;20011;-72
2022/10/22 12:08:09;;;;;;;;;;;15.90;99.90;;;;;;5051188;28;19921;-73
2022/10/22 12:10:49;;;;;;;;;;;15.90;99.90;;;;;;5034201;28;20015;-72
2022/10/22 12:13:21;;;;;;;;;;;15.90;99.90;;;;;;5051546;28;20091;-72
2022/10/22 12:15:48;;;;;;;;;;;15.90;99.90;;;;;;5039356;28;19921;-71
2022/10/22 12:18:14;;;;;;;;;;;15.80;99.90;;;;;;4995852;28;19917;-72
2022/10/22 12:20:39;;;;;;;;;;;15.80;99.90;;;;;;5011133;28;19916;-72
2022/10/22 12:23:08;;;;;;;;;;;15.90;99.90;;;;;;5008646;28;20361;-72
2022/10/22 12:25:35;;;;;;;;;;;15.80;99.90;;;;;;5031339;28;20378;-72
2022/10/22 12:28:00;;;;;;;;;;;15.90;99.90;;;;;;5009971;28;19916;-72
2022/10/22 12:30:29;;;;;;;;;;;15.90;99.90;;;;;;5023924;28;19916;-72
2022/10/22 12:32:56;;;;;;;;;;;16.00;99.90;;;;;;5008091;28;20278;-72
2022/10/22 12:35:23;;;;;;;;;;;16.00;99.90;;;;;;5011180;28;19952;-72
2022/10/22 12:38:09;;;;;;;;;;;16.10;99.90;;;;;;5008751;28;19924;-72
2022/10/22 12:40:34;;;;;;;;;;;16.10;99.90;;;;;;5014226;28;20314;-72
2022/10/22 12:43:01;;;;;;;;;;;16.20;99.90;;;;;;5005715;28;19916;-72
2022/10/22 12:45:28;;;;;;;;;;;16.20;99.90;;;;;;5027047;28;19947;-71
2022/10/22 12:47:58;;;;;;;;;;;16.40;99.90;;;;;;5013043;28;19917;-72
2022/10/22 12:50:36;;;;;;;;;;;16.40;99.90;;;;;;5025762;28;19925;-72
2022/10/22 12:53:01;;;;;;;;;;;16.40;99.90;;;;;;5024735;28;19955;-72
2022/10/22 12:55:30;;;;;;;;;;;16.50;99.90;;;;;;5024400;28;19971;-72
2022/10/22 12:57:55;;;;;;;;;;;16.40;99.90;;;;;;5007855;28;19921;-72
2022/10/22 13:00:22;;;;;;;;;;;16.40;99.90;;;;;;5004408;28;19924;-71
2022/10/22 13:02:48;;;;;;;;;;;16.40;99.90;;;;;;5025228;28;20061;-72
2022/10/22 13:05:20;;;;;;;;;;;16.40;99.90;;;;;;5007911;28;19936;-72
2022/10/22 13:07:50;;;;;;;;;;;16.40;99.90;;;;;;5026695;28;19924;-73
2022/10/22 13:10:24;;;;;;;;;;;16.40;99.90;;;;;;4999069;28;20286;-73
2022/10/22 13:12:50;;;;;;;;;;;16.40;99.90;;;;;;5006256;28;20293;-71
2022/10/22 13:15:33;;;;;;;;;;;16.40;99.90;;;;;;5022459;28;19917;-73
2022/10/22 13:18:13;;;;;;;;;;;16.40;99.90;;;;;;5023288;28;19928;-73
2022/10/22 13:20:49;;;;;;;;;;;16.40;99.90;;;;;;5026160;28;20015;-73
2022/10/22 13:23:19;;;;;;;;;;;16.60;99.90;;;;;;5024881;28;19917;-72
2022/10/22 13:25:54;;;;;;;;;;;16.70;99.90;;;;;;5027327;28;20390;-72
2022/10/22 13:28:20;;;;;;;;;;;16.90;99.90;;;;;;5033460;28;19925;-72
2022/10/22 13:30:55;;;;;;;;;;;16.90;99.90;;;;;;5019855;28;20433;-73
2022/10/22 13:33:25;;;;;;;;;;;16.90;99.90;;;;;;5012911;28;19960;-72
2022/10/22 13:35:50;;;;;;;;;;;16.80;99.90;;;;;;5001258;28;19928;-72
2022/10/22 13:38:21;;;;;;;;;;;16.80;99.90;;;;;;5027855;28;20279;-72
2022/10/22 13:40:47;;;;;;;;;;;16.80;99.90;;;;;;5032145;28;19921;-72
2022/10/22 13:43:12;;;;;;;;;;;16.90;99.90;;;;;;5019410;28;19947;-73
2022/10/22 13:45:38;;;;;;;;;;;16.90;99.90;;;;;;5034775;28;20021;-73
2022/10/22 13:48:04;;;;;;;;;;;17.00;99.90;;;;;;5030040;28;20102;-73
2022/10/22 13:50:29;;;;;;;;;;;17.00;99.90;;;;;;5026670;28;19951;-73
2022/10/22 13:52:56;;;;;;;;;;;17.00;99.90;;;;;;5029654;28;19925;-74
2022/10/22 13:55:24;;;;;;;;;;;17.10;99.90;;;;;;5031371;28;19920;-73
2022/10/22 13:57:50;;;;;;;;;;;17.20;99.90;;;;;;5016188;28;19976;-73
2022/10/22 14:00:17;;;;;;;;;;;17.40;99.90;;;;;;5031858;28;19932;-73
2022/10/22 14:02:44;;;;;;;;;;;17.40;99.90;;;;;;5038573;28;19951;-73
2022/10/22 14:05:10;;;;;;;;;;;17.50;99.90;;;;;;5030346;28;19921;-73
2022/10/22 14:07:36;;;;;;;;;;;17.50;99.90;;;;;;5032987;28;19928;-74
2022/10/22 14:10:05;;;;;;;;;;;17.60;99.90;;;;;;5040572;28;20549;-74
2022/10/22 14:12:31;;;;;;;;;;;17.50;99.90;;;;;;5046008;28;19924;-73
2022/10/22 14:14:57;;;;;;;;;;;17.50;99.90;;;;;;5009847;28;20252;-72
2022/10/22 14:17:23;;;;;;;;;;;17.50;99.90;;;;;;4995570;28;20153;-73
2022/10/22 14:19:48;;;;;;;;;;;17.50;99.90;;;;;;5033734;28;19928;-72
2022/10/22 14:22:17;;;;;;;;;;;17.50;99.90;;;;;;5015316;28;19940;-73
2022/10/22 14:24:43;;;;;;;;;;;17.40;99.90;;;;;;5021655;28;20141;-73
2022/10/22 14:27:10;;;;;;;;;;;17.30;99.90;;;;;;5026447;28;19920;-73